createdAt,value
2019-02-27T00:00:11.404Z,99.90
2019-02-27T00:02:40.544Z,99.90
2019-02-27T00:05:09.081Z,99.90
2019-02-27T00:07:37.779Z,99.90
2019-02-27T00:10:07.459Z,99.90
2019-02-27T00:12:35.979Z,99.90
2019-02-27T00:15:06.041Z,99.90
2019-02-27T00:17:34.492Z,99.90
2019-02-27T00:20:04.994Z,99.90
2019-02-27T00:22:33.115Z,99.90
2019-02-27T00:25:03.464Z,99.90
2019-02-27T00:27:31.791Z,99.90
2019-02-27T00:30:04.520Z,99.90
2019-02-27T00:32:30.411Z,99.90
2019-02-27T00:34:58.877Z,99.90
2019-02-27T00:37:27.338Z,99.90
2019-02-27T00:39:55.776Z,99.90
2019-02-27T00:42:33.070Z,99.90
2019-02-27T00:44:54.412Z,99.90
2019-02-27T00:47:22.874Z,99.90
2019-02-27T00:49:51.306Z,99.90
2019-02-27T00:52:19.768Z,99.90
2019-02-27T00:54:48.228Z,99.90
2019-02-27T00:57:20.464Z,99.90
2019-02-27T00:59:46.857Z,99.90
2019-02-27T01:02:19.871Z,99.90
2019-02-27T01:04:45.646Z,99.90
2019-02-27T01:07:20.244Z,99.90
2019-02-27T01:09:45.539Z,99.90
2019-02-27T01:12:14.376Z,99.90
2019-02-27T01:14:42.818Z,99.90
2019-02-27T01:17:11.274Z,99.90
2019-02-27T01:19:39.733Z,99.90
2019-02-27T01:22:08.188Z,99.90
2019-02-27T01:24:36.630Z,99.90
2019-02-27T01:27:05.408Z,99.90
2019-02-27T01:29:33.906Z,99.90
2019-02-27T01:32:02.387Z,99.90
2019-02-27T01:34:30.889Z,99.90
2019-02-27T01:36:59.471Z,99.90
2019-02-27T01:39:27.980Z,99.90
2019-02-27T01:41:57.935Z,99.90
2019-02-27T01:44:26.593Z,99.90
2019-02-27T01:46:55.051Z,99.90
2019-02-27T01:49:23.495Z,99.90
2019-02-27T01:51:51.924Z,99.90
2019-02-27T01:54:20.380Z,99.90
2019-02-27T01:56:48.837Z,99.90
2019-02-27T01:59:17.827Z,99.90
2019-02-27T02:01:46.308Z,99.90
2019-02-27T02:04:14.776Z,99.90
2019-02-27T02:06:43.379Z,99.90
2019-02-27T02:09:32.909Z,99.90
2019-02-27T02:12:07.992Z,99.90
2019-02-27T02:14:54.369Z,99.90
2019-02-27T02:17:26.515Z,99.90
2019-02-27T02:20:14.597Z,99.90
2019-02-27T02:22:49.063Z,99.90
2019-02-27T02:25:25.097Z,99.90
2019-02-27T02:28:16.103Z,99.90
2019-02-27T02:30:53.613Z,99.90
2019-02-27T02:33:30.850Z,99.90
2019-02-27T02:36:16.788Z,99.90
2019-02-27T02:39:03.800Z,99.90
2019-02-27T02:41:50.345Z,99.90
2019-02-27T02:44:44.103Z,99.90
2019-02-27T02:47:21.092Z,99.90
2019-02-27T02:50:17.409Z,99.90
2019-02-27T02:53:24.824Z,99.90
2019-02-27T02:55:54.626Z,99.90
2019-02-27T02:58:26.143Z,99.90
2019-02-27T03:01:03.162Z,99.90
2019-02-27T03:04:02.954Z,99.90
2019-02-27T03:06:52.175Z,99.90
2019-02-27T03:09:30.845Z,99.90
2019-02-27T03:12:19.203Z,99.90
2019-02-27T03:15:08.982Z,99.90
2019-02-27T03:17:53.771Z,99.90
2019-02-27T03:20:40.432Z,99.90
2019-02-27T03:23:32.967Z,99.90
2019-02-27T03:26:07.374Z,99.90
2019-02-27T03:28:40.972Z,99.90
2019-02-27T03:31:30.043Z,99.90
2019-02-27T03:34:09.096Z,99.90
2019-02-27T03:36:57.083Z,99.90
2019-02-27T03:39:37.317Z,99.90
2019-02-27T03:42:14.794Z,99.90
2019-02-27T03:44:55.831Z,99.90
2019-02-27T03:47:27.689Z,99.90
2019-02-27T03:50:14.627Z,99.90
2019-02-27T03:52:53.326Z,99.90
2019-02-27T03:55:55.265Z,99.90
2019-02-27T03:58:43.018Z,99.90
2019-02-27T04:01:14.857Z,99.90
2019-02-27T04:04:10.089Z,99.90
2019-02-27T04:07:11.475Z,99.90
2019-02-27T04:09:39.928Z,99.90
2019-02-27T04:12:08.397Z,99.90
2019-02-27T04:14:40.812Z,99.90
2019-02-27T04:17:07.759Z,99.90
2019-02-27T04:19:39.185Z,99.90
2019-02-27T04:22:06.814Z,99.90
2019-02-27T04:24:35.304Z,99.90
2019-02-27T04:27:03.824Z,99.90
2019-02-27T04:29:32.360Z,99.90
2019-02-27T04:32:00.871Z,99.90
2019-02-27T04:34:33.038Z,99.90
2019-02-27T04:36:59.495Z,99.90
2019-02-27T04:39:28.011Z,99.90
2019-02-27T04:41:56.448Z,99.90
2019-02-27T04:44:24.899Z,99.90
2019-02-27T04:46:55.100Z,99.90
2019-02-27T04:49:23.751Z,99.90
2019-02-27T04:51:52.201Z,99.90
2019-02-27T04:54:20.661Z,99.90
2019-02-27T04:56:49.287Z,99.90
2019-02-27T04:59:18.735Z,99.90
2019-02-27T05:01:47.769Z,99.90
2019-02-27T05:04:16.204Z,99.90
2019-02-27T05:06:46.825Z,99.90
2019-02-27T05:09:14.816Z,99.90
2019-02-27T05:11:47.527Z,99.90
2019-02-27T05:14:13.435Z,99.90
2019-02-27T05:16:41.890Z,99.90
2019-02-27T05:19:10.337Z,99.90
2019-02-27T05:21:38.787Z,99.90
2019-02-27T05:24:07.672Z,99.90
2019-02-27T05:26:37.062Z,99.90
2019-02-27T05:29:05.669Z,99.90
2019-02-27T05:31:34.168Z,99.90
2019-02-27T05:34:02.684Z,99.90
2019-02-27T05:36:31.639Z,99.90
2019-02-27T05:39:00.754Z,99.90
2019-02-27T05:41:32.888Z,99.90
2019-02-27T05:43:59.408Z,99.90
2019-02-27T05:46:27.848Z,99.90
2019-02-27T05:48:56.290Z,99.90
2019-02-27T05:51:24.770Z,99.90
2019-02-27T05:53:53.206Z,99.90
2019-02-27T05:56:21.670Z,99.90
2019-02-27T05:58:50.094Z,99.90
2019-02-27T06:01:18.573Z,99.90
2019-02-27T06:03:49.448Z,99.90
2019-02-27T06:06:17.208Z,99.90
2019-02-27T06:08:45.727Z,99.90
2019-02-27T06:11:14.182Z,99.90
2019-02-27T06:13:44.992Z,99.90
2019-02-27T06:16:12.792Z,99.90
2019-02-27T06:18:41.241Z,99.90
2019-02-27T06:21:13.252Z,99.90
2019-02-27T06:23:40.859Z,99.90
2019-02-27T06:26:09.298Z,99.90
2019-02-27T06:28:37.760Z,99.90
2019-02-27T06:31:06.208Z,99.90
2019-02-27T06:33:34.653Z,99.90
2019-02-27T06:36:05.291Z,99.90
2019-02-27T06:38:33.443Z,99.90
2019-02-27T06:41:01.883Z,99.90
2019-02-27T06:43:30.335Z,99.90
2019-02-27T06:45:58.931Z,99.90
2019-02-27T06:48:27.391Z,99.90
2019-02-27T06:50:58.279Z,99.90
2019-02-27T06:53:26.287Z,99.90
2019-02-27T06:55:54.732Z,99.90
2019-02-27T06:58:23.181Z,99.90
2019-02-27T07:00:51.623Z,99.90
2019-02-27T07:03:20.085Z,99.90
2019-02-27T07:05:48.843Z,99.90
2019-02-27T07:08:17.377Z,99.90
2019-02-27T07:10:45.823Z,99.90
2019-02-27T07:13:14.279Z,99.90
2019-02-27T07:15:47.915Z,99.90
2019-02-27T07:18:12.912Z,99.90
2019-02-27T07:20:41.347Z,99.90
2019-02-27T07:23:09.809Z,99.90
2019-02-27T07:25:41.906Z,99.90
2019-02-27T07:28:09.119Z,99.90
2019-02-27T07:30:39.754Z,99.90
2019-02-27T07:33:07.935Z,99.90
2019-02-27T07:35:36.378Z,99.90
2019-02-27T07:38:04.910Z,99.90
2019-02-27T07:40:33.421Z,99.90
2019-02-27T07:43:03.289Z,99.90
2019-02-27T07:45:32.238Z,99.90
2019-02-27T07:48:00.699Z,99.90
2019-02-27T07:50:29.134Z,99.90
2019-02-27T07:52:57.607Z,99.90
2019-02-27T07:55:28.398Z,99.90
2019-02-27T07:57:58.689Z,99.90
2019-02-27T08:00:26.658Z,99.90
2019-02-27T08:02:55.145Z,99.90
2019-02-27T08:05:27.941Z,99.90
2019-02-27T08:07:54.156Z,99.90
2019-02-27T08:10:23.635Z,99.90
2019-02-27T08:12:55.496Z,99.90
2019-02-27T08:15:22.483Z,99.90
2019-02-27T08:17:51.009Z,99.90
2019-02-27T08:20:20.971Z,99.90
2019-02-27T08:22:49.872Z,99.90
2019-02-27T08:25:21.243Z,99.90
2019-02-27T08:27:49.683Z,99.20
2019-02-27T08:30:20.078Z,99.90
2019-02-27T08:32:48.546Z,99.10
2019-02-27T08:35:17.089Z,95.70
2019-02-27T08:37:45.679Z,92.90
2019-02-27T08:40:14.795Z,92.30
2019-02-27T08:42:43.516Z,90.60
2019-02-27T08:45:19.955Z,89.00
2019-02-27T08:47:44.613Z,93.00
2019-02-27T08:50:15.137Z,87.20
2019-02-27T08:52:44.513Z,77.40
2019-02-27T08:55:19.075Z,67.20
2019-02-27T08:57:44.863Z,74.70
2019-02-27T09:00:23.955Z,74.40
2019-02-27T09:02:52.468Z,79.00
2019-02-27T09:05:21.126Z,75.00
2019-02-27T09:07:50.586Z,68.50
2019-02-27T09:10:23.198Z,70.60
2019-02-27T09:12:51.792Z,65.80
2019-02-27T09:15:20.624Z,58.40
2019-02-27T09:17:55.492Z,59.60
2019-02-27T09:20:24.109Z,57.60
2019-02-27T09:22:52.893Z,56.10
2019-02-27T09:25:24.618Z,53.00
2019-02-27T09:27:51.580Z,57.00
2019-02-27T09:30:28.766Z,53.50
2019-02-27T09:32:53.866Z,52.30
2019-02-27T09:35:22.329Z,49.30
2019-02-27T09:37:51.875Z,48.50
2019-02-27T09:40:25.275Z,52.40
2019-02-27T09:42:54.035Z,49.60
2019-02-27T09:45:30.144Z,48.80
2019-02-27T09:47:59.990Z,50.60
2019-02-27T09:50:33.819Z,51.10
2019-02-27T09:53:03.528Z,50.80
2019-02-27T09:55:32.606Z,50.10
2019-02-27T09:58:01.118Z,53.00
2019-02-27T10:00:33.355Z,50.80
2019-02-27T10:03:02.077Z,49.40
2019-02-27T10:05:30.783Z,49.00
2019-02-27T10:07:59.354Z,50.30
2019-02-27T10:10:27.809Z,47.40
2019-02-27T10:12:56.326Z,50.30
2019-02-27T10:15:25.221Z,51.80
2019-02-27T10:17:54.372Z,51.40
2019-02-27T10:20:22.916Z,52.60
2019-02-27T10:22:53.376Z,48.60
2019-02-27T10:25:21.562Z,50.30
2019-02-27T10:27:50.081Z,49.40
2019-02-27T10:30:20.249Z,50.50
2019-02-27T10:32:48.714Z,49.50
2019-02-27T10:35:17.238Z,48.80
2019-02-27T10:37:50.306Z,46.00
2019-02-27T10:40:18.702Z,44.70
2019-02-27T10:42:47.171Z,48.90
2019-02-27T10:45:15.893Z,47.60
2019-02-27T10:47:44.435Z,48.70
2019-02-27T10:50:13.846Z,48.50
2019-02-27T10:52:42.441Z,47.10
2019-02-27T10:55:19.940Z,45.20
2019-02-27T10:57:48.918Z,47.10
2019-02-27T11:00:19.702Z,48.60
2019-02-27T11:02:48.615Z,43.80
2019-02-27T11:05:18.320Z,47.00
2019-02-27T11:07:46.928Z,47.20
2019-02-27T11:10:15.747Z,47.80
2019-02-27T11:12:44.341Z,48.10
2019-02-27T11:15:22.867Z,43.90
2019-02-27T11:17:51.617Z,45.00
2019-02-27T11:20:21.766Z,43.20
2019-02-27T11:22:50.554Z,45.30
2019-02-27T11:25:24.458Z,42.10
2019-02-27T11:27:52.982Z,42.50
2019-02-27T11:30:36.003Z,43.90
2019-02-27T11:33:03.460Z,40.30
2019-02-27T11:35:32.051Z,40.00
2019-02-27T11:38:00.563Z,41.10
2019-02-27T11:40:29.072Z,43.20
2019-02-27T11:42:57.674Z,43.40
2019-02-27T11:45:26.118Z,43.00
2019-02-27T11:47:54.572Z,42.10
2019-02-27T11:50:23.105Z,38.60
2019-02-27T11:52:51.805Z,38.30
2019-02-27T11:55:21.395Z,37.40
2019-02-27T11:57:50.025Z,37.30
2019-02-27T12:00:27.279Z,37.30
2019-02-27T12:02:56.194Z,37.20
2019-02-27T12:05:30.840Z,38.10
2019-02-27T12:07:55.764Z,37.00
2019-02-27T12:10:29.924Z,37.20
2019-02-27T12:13:00.831Z,37.20
2019-02-27T12:15:28.690Z,37.40
2019-02-27T12:18:02.334Z,38.90
2019-02-27T12:20:28.528Z,37.80
2019-02-27T12:22:57.047Z,39.80
2019-02-27T12:25:27.831Z,38.20
2019-02-27T12:27:58.915Z,40.30
2019-02-27T12:30:28.842Z,40.90
2019-02-27T12:32:57.459Z,39.30
2019-02-27T12:35:30.719Z,40.00
2019-02-27T12:37:59.523Z,41.20
2019-02-27T12:40:27.993Z,39.80
2019-02-27T12:42:57.389Z,38.80
2019-02-27T12:45:29.898Z,40.00
2019-02-27T12:47:58.833Z,38.80
2019-02-27T12:50:31.023Z,39.70
2019-02-27T12:52:58.770Z,38.50
2019-02-27T12:55:27.462Z,42.60
2019-02-27T12:57:55.986Z,43.00
2019-02-27T13:00:31.951Z,42.60
2019-02-27T13:03:00.458Z,41.60
2019-02-27T13:05:29.142Z,42.10
2019-02-27T13:07:57.784Z,42.10
2019-02-27T13:10:32.994Z,41.80
2019-02-27T13:12:58.227Z,42.00
2019-02-27T13:15:27.798Z,41.70
2019-02-27T13:17:58.196Z,43.60
2019-02-27T13:20:34.279Z,44.70
2019-02-27T13:23:05.140Z,43.40
2019-02-27T13:25:33.127Z,44.40
2019-02-27T13:28:01.589Z,42.50
2019-02-27T13:30:30.174Z,42.50
2019-02-27T13:33:01.260Z,44.60
2019-02-27T13:35:29.198Z,45.50
2019-02-27T13:37:57.821Z,45.30
2019-02-27T13:40:34.926Z,45.40
2019-02-27T13:43:01.806Z,47.70
2019-02-27T13:45:33.466Z,45.80
2019-02-27T13:48:04.941Z,45.50
2019-02-27T13:50:32.179Z,45.80
2019-02-27T13:53:00.694Z,46.50
2019-02-27T13:55:29.262Z,46.70
2019-02-27T13:57:59.209Z,47.30
2019-02-27T14:00:35.706Z,46.40
2019-02-27T14:03:04.310Z,45.50
2019-02-27T14:05:36.024Z,45.80
2019-02-27T14:08:03.322Z,46.80
2019-02-27T14:10:33.905Z,46.40
2019-02-27T14:13:02.429Z,48.60
2019-02-27T14:15:31.734Z,47.50
2019-02-27T14:18:00.678Z,47.00
2019-02-27T14:20:29.382Z,46.30
2019-02-27T14:22:58.268Z,47.90
2019-02-27T14:25:32.861Z,48.90
2019-02-27T14:28:01.414Z,47.40
2019-02-27T14:30:44.408Z,47.60
2019-02-27T14:33:13.191Z,47.30
2019-02-27T14:35:41.702Z,48.10
2019-02-27T14:38:10.139Z,48.80
2019-02-27T14:40:41.071Z,49.60
2019-02-27T14:43:08.922Z,50.10
2019-02-27T14:45:40.606Z,48.50
2019-02-27T14:48:07.542Z,51.10
2019-02-27T14:50:36.048Z,50.30
2019-02-27T14:53:04.569Z,49.60
2019-02-27T14:55:36.268Z,52.60
2019-02-27T14:58:03.398Z,51.40
2019-02-27T15:00:40.039Z,52.00
2019-02-27T15:03:06.068Z,52.10
2019-02-27T15:05:36.598Z,52.30
2019-02-27T15:08:04.835Z,52.40
2019-02-27T15:10:33.283Z,53.70
2019-02-27T15:13:01.722Z,52.00
2019-02-27T15:15:32.340Z,53.80
2019-02-27T15:18:00.958Z,51.10
2019-02-27T15:20:31.417Z,50.70
2019-02-27T15:22:59.861Z,50.80
2019-02-27T15:25:28.412Z,51.70
2019-02-27T15:27:58.787Z,52.50
2019-02-27T15:30:31.243Z,51.10
2019-02-27T15:33:03.701Z,50.80
2019-02-27T15:35:30.010Z,51.10
2019-02-27T15:37:58.751Z,50.10
2019-02-27T15:40:30.082Z,49.80
2019-02-27T15:42:58.914Z,49.80
2019-02-27T15:45:28.629Z,52.20
2019-02-27T15:47:57.216Z,52.60
2019-02-27T15:50:30.604Z,53.00
2019-02-27T15:52:59.228Z,50.50
2019-02-27T15:55:33.107Z,51.20
2019-02-27T15:57:57.986Z,50.30
2019-02-27T16:00:27.379Z,51.70
2019-02-27T16:02:55.957Z,50.90
2019-02-27T16:05:30.149Z,52.70
2019-02-27T16:07:54.586Z,52.90
2019-02-27T16:10:24.280Z,53.80
2019-02-27T16:12:52.720Z,55.40
2019-02-27T16:15:21.939Z,56.90
2019-02-27T16:17:50.570Z,56.10
2019-02-27T16:20:25.522Z,57.50
2019-02-27T16:22:53.966Z,59.40
2019-02-27T16:25:23.544Z,58.30
2019-02-27T16:27:52.007Z,60.90
2019-02-27T16:30:22.491Z,61.80
2019-02-27T16:32:51.060Z,61.70
2019-02-27T16:35:19.653Z,62.60
2019-02-27T16:37:48.242Z,63.80
2019-02-27T16:40:18.933Z,67.20
2019-02-27T16:42:47.555Z,67.00
2019-02-27T16:45:18.071Z,69.90
2019-02-27T16:47:46.517Z,72.80
2019-02-27T16:50:17.687Z,73.70
2019-02-27T16:52:46.146Z,75.60
2019-02-27T16:55:17.205Z,79.10
2019-02-27T16:57:45.727Z,78.30
2019-02-27T17:00:19.821Z,76.70
2019-02-27T17:02:47.009Z,76.40
2019-02-27T17:05:15.472Z,79.80
2019-02-27T17:07:43.975Z,86.60
2019-02-27T17:10:20.895Z,82.80
2019-02-27T17:12:49.324Z,83.90
2019-02-27T17:15:17.858Z,90.70
2019-02-27T17:17:46.478Z,87.50
2019-02-27T17:20:17.648Z,84.30
2019-02-27T17:22:46.088Z,86.20
2019-02-27T17:25:14.983Z,84.50
2019-02-27T17:27:43.502Z,82.70
2019-02-27T17:30:26.910Z,83.50
2019-02-27T17:32:55.488Z,91.30
2019-02-27T17:35:24.247Z,88.70
2019-02-27T17:37:52.780Z,86.50
2019-02-27T17:40:21.338Z,84.70
2019-02-27T17:42:53.007Z,91.50
2019-02-27T17:45:24.225Z,94.10
2019-02-27T17:47:52.732Z,95.30
2019-02-27T17:50:21.330Z,94.00
2019-02-27T17:52:49.851Z,96.70
2019-02-27T17:55:19.063Z,97.00
2019-02-27T17:57:47.512Z,97.50
2019-02-27T18:00:23.156Z,99.00
2019-02-27T18:02:51.603Z,97.00
2019-02-27T18:05:22.359Z,92.90
2019-02-27T18:07:50.412Z,92.40
2019-02-27T18:10:19.017Z,96.20
2019-02-27T18:12:47.465Z,92.80
2019-02-27T18:15:21.233Z,93.90
2019-02-27T18:17:49.892Z,99.90
2019-02-27T18:20:18.346Z,95.10
2019-02-27T18:22:49.512Z,94.90
2019-02-27T18:25:18.094Z,97.40
2019-02-27T18:27:47.948Z,96.50
2019-02-27T18:30:21.559Z,94.50
2019-02-27T18:32:50.173Z,93.80
2019-02-27T18:35:23.044Z,97.60
2019-02-27T18:37:55.887Z,96.70
2019-02-27T18:40:24.375Z,92.60
2019-02-27T18:42:56.472Z,93.20
2019-02-27T18:45:30.155Z,92.20
2019-02-27T18:47:59.030Z,92.50
2019-02-27T18:50:27.684Z,91.00
2019-02-27T18:52:56.292Z,95.50
2019-02-27T18:55:29.248Z,95.40
2019-02-27T18:57:54.916Z,99.90
2019-02-27T19:00:27.872Z,99.40
2019-02-27T19:03:05.310Z,99.80
2019-02-27T19:05:33.862Z,95.80
2019-02-27T19:08:02.318Z,94.40
2019-02-27T19:10:30.786Z,94.90
2019-02-27T19:13:00.839Z,95.00
2019-02-27T19:15:29.706Z,95.00
2019-02-27T19:17:58.826Z,93.70
2019-02-27T19:20:30.347Z,94.00
2019-02-27T19:23:00.327Z,94.10
2019-02-27T19:25:34.106Z,93.70
2019-02-27T19:27:59.401Z,94.30
2019-02-27T19:30:28.124Z,96.60
2019-02-27T19:33:01.492Z,94.40
2019-02-27T19:35:26.999Z,94.80
2019-02-27T19:37:55.644Z,96.00
2019-02-27T19:40:24.397Z,95.80
2019-02-27T19:42:54.992Z,95.70
2019-02-27T19:45:23.672Z,95.70
2019-02-27T19:47:54.582Z,98.40
2019-02-27T19:50:22.510Z,97.70
2019-02-27T19:52:51.128Z,97.40
2019-02-27T19:55:19.659Z,98.20
2019-02-27T19:57:48.279Z,99.90
2019-02-27T20:00:24.763Z,99.90
2019-02-27T20:02:57.881Z,99.80
2019-02-27T20:05:24.060Z,99.90
2019-02-27T20:07:53.087Z,99.90
2019-02-27T20:10:21.591Z,99.90
2019-02-27T20:12:52.713Z,99.90
2019-02-27T20:15:23.326Z,99.90
2019-02-27T20:17:52.423Z,99.90
2019-02-27T20:20:22.239Z,99.90
2019-02-27T20:22:53.477Z,99.90
2019-02-27T20:25:25.463Z,99.90
2019-02-27T20:27:54.061Z,99.90
2019-02-27T20:30:24.134Z,99.90
2019-02-27T20:32:52.722Z,99.90
2019-02-27T20:35:21.588Z,99.90
2019-02-27T20:37:50.310Z,99.90
2019-02-27T20:40:20.112Z,99.90
2019-02-27T20:42:50.403Z,99.90
2019-02-27T20:45:22.940Z,99.90
2019-02-27T20:47:57.724Z,99.90
2019-02-27T20:50:34.811Z,99.90
2019-02-27T20:53:02.367Z,99.90
2019-02-27T20:55:31.835Z,99.90
2019-02-27T20:58:00.453Z,99.90
2019-02-27T21:00:29.078Z,99.90
2019-02-27T21:02:59.932Z,99.90
2019-02-27T21:05:29.003Z,99.90
2019-02-27T21:08:02.172Z,99.90
2019-02-27T21:10:30.226Z,99.90
2019-02-27T21:12:58.917Z,99.90
2019-02-27T21:15:29.298Z,99.90
2019-02-27T21:17:58.464Z,99.90
2019-02-27T21:20:27.348Z,99.90
2019-02-27T21:22:55.868Z,99.90
2019-02-27T21:25:24.454Z,99.90
2019-02-27T21:27:53.063Z,99.90
2019-02-27T21:30:22.730Z,99.90
2019-02-27T21:32:51.319Z,99.90
2019-02-27T21:35:19.928Z,99.90
2019-02-27T21:37:48.402Z,99.90
2019-02-27T21:40:18.075Z,99.90
2019-02-27T21:42:46.708Z,99.90
2019-02-27T21:45:22.297Z,99.90
2019-02-27T21:47:51.715Z,99.90
2019-02-27T21:50:24.893Z,99.90
2019-02-27T21:52:55.656Z,99.90
2019-02-27T21:55:23.822Z,99.90
2019-02-27T21:57:52.418Z,99.90
2019-02-27T22:00:28.747Z,99.90
2019-02-27T22:02:58.075Z,99.90
2019-02-27T22:05:26.707Z,99.90
2019-02-27T22:07:55.311Z,99.90
2019-02-27T22:10:23.806Z,99.90
2019-02-27T22:12:52.392Z,99.90
2019-02-27T22:15:30.445Z,99.90
2019-02-27T22:17:58.969Z,99.90
2019-02-27T22:20:27.472Z,99.90
2019-02-27T22:22:56.060Z,99.90
2019-02-27T22:25:30.196Z,99.90
2019-02-27T22:27:54.684Z,99.90
2019-02-27T22:30:23.668Z,99.90
2019-02-27T22:32:52.271Z,99.90
2019-02-27T22:35:20.766Z,99.90
2019-02-27T22:37:52.358Z,99.90
2019-02-27T22:40:21.788Z,99.90
2019-02-27T22:42:50.313Z,99.90
2019-02-27T22:45:19.789Z,99.90
2019-02-27T22:47:49.287Z,99.90
2019-02-27T22:50:21.380Z,99.90
2019-02-27T22:52:54.070Z,99.90
2019-02-27T22:55:20.071Z,99.90
2019-02-27T22:57:48.605Z,99.90
2019-02-27T23:00:53.100Z,99.90
2019-02-27T23:03:24.508Z,99.90
2019-02-27T23:05:53.193Z,99.90
2019-02-27T23:08:23.002Z,99.90
2019-02-27T23:10:51.937Z,99.90
2019-02-27T23:13:20.395Z,99.90
2019-02-27T23:15:48.968Z,99.90
2019-02-27T23:18:17.420Z,99.90
2019-02-27T23:20:45.863Z,99.90
2019-02-27T23:23:14.419Z,99.90
2019-02-27T23:25:42.936Z,99.90
2019-02-27T23:28:11.400Z,99.90
2019-02-27T23:30:39.833Z,99.90
2019-02-27T23:33:08.285Z,99.90
2019-02-27T23:35:36.726Z,99.90
2019-02-27T23:38:05.187Z,99.90
2019-02-27T23:40:33.623Z,99.90
2019-02-27T23:43:03.326Z,99.90
2019-02-27T23:45:32.113Z,99.90
2019-02-27T23:48:02.246Z,99.90
2019-02-27T23:50:30.735Z,99.90
2019-02-27T23:52:59.199Z,99.90
2019-02-27T23:55:27.833Z,99.90
2019-02-27T23:57:57.806Z,99.90
